Time;durP1;ratioP1;P1;durP2;ratioP2;P2;SDS_P1;SDS_P2;PMS_P1;PMS_P2;Temp;Humidity;BMP_temperature;BMP_pressure;BME280_temperature;BME280_humidity;BME280_pressure;Samples;Min_cycle;Max_cycle;Signal;HPM_P1;HPM_P2
2021/11/25 00:02:16;;;;;;;2.33;1.83;;;21.80;35.70;;;;;;5032355;28;20387;-74
2021/11/25 00:04:42;;;;;;;2.70;2.00;;;21.80;35.80;;;;;;5031911;28;20414;-71
2021/11/25 00:07:08;;;;;;;2.65;2.10;;;21.80;35.70;;;;;;5032001;28;20401;-73
2021/11/25 00:09:34;;;;;;;2.72;2.10;;;21.80;35.70;;;;;;5031883;28;20383;-72
2021/11/25 00:11:59;;;;;;;2.57;2.10;;;21.80;35.80;;;;;;5031950;28;20495;-73
2021/11/25 00:14:25;;;;;;;2.63;2.08;;;21.80;35.80;;;;;;5031775;28;21055;-73
2021/11/25 00:16:51;;;;;;;2.90;2.10;;;21.90;36.00;;;;;;5031693;28;20445;-73
2021/11/25 00:19:16;;;;;;;2.50;2.20;;;21.80;35.80;;;;;;5031916;28;20445;-73
2021/11/25 00:21:42;;;;;;;2.60;2.20;;;21.80;35.80;;;;;;5031883;28;20393;-74
2021/11/25 00:24:08;;;;;;;3.25;2.28;;;21.80;35.80;;;;;;5031734;28;20766;-73
2021/11/25 00:26:35;;;;;;;3.55;2.30;;;21.80;35.80;;;;;;5031594;28;20414;-73
2021/11/25 00:29:03;;;;;;;3.30;2.60;;;21.80;35.70;;;;;;5031734;28;20383;-72
2021/11/25 00:31:28;;;;;;;2.85;2.40;;;21.80;35.70;;;;;;5031485;28;20416;-74
2021/11/25 00:33:54;;;;;;;2.90;2.33;;;21.80;35.70;;;;;;5030393;28;20430;-73
2021/11/25 00:36:20;;;;;;;3.22;2.50;;;21.80;35.60;;;;;;5030055;28;20404;-74
2021/11/25 00:38:46;;;;;;;3.15;2.35;;;21.80;35.60;;;;;;5031594;28;20383;-72
2021/11/25 00:41:13;;;;;;;3.05;2.38;;;21.80;35.60;;;;;;5031677;28;20387;-73
2021/11/25 00:43:39;;;;;;;2.97;2.67;;;21.80;35.60;;;;;;5030021;28;20812;-74
2021/11/25 00:46:05;;;;;;;3.17;2.67;;;21.80;35.60;;;;;;5031389;28;20908;-72
2021/11/25 00:48:31;;;;;;;4.05;2.60;;;21.80;35.60;;;;;;5030250;28;20387;-72
2021/11/25 00:50:57;;;;;;;3.10;2.60;;;21.70;35.50;;;;;;5030337;28;20448;-71
2021/11/25 00:53:23;;;;;;;3.17;2.50;;;21.70;35.50;;;;;;5031159;28;20445;-70
2021/11/25 00:55:49;;;;;;;2.83;2.33;;;21.70;35.60;;;;;;5030171;28;20430;-73
2021/11/25 00:58:15;;;;;;;2.90;2.60;;;21.70;35.50;;;;;;5033703;28;20390;-70
2021/11/25 01:00:41;;;;;;;3.45;2.50;;;21.80;35.60;;;;;;5033428;28;20812;-72
2021/11/25 01:03:07;;;;;;;3.75;2.70;;;21.70;35.60;;;;;;5034866;28;20397;-74
2021/11/25 01:05:33;;;;;;;3.60;2.55;;;21.70;35.70;;;;;;5034978;28;20441;-74
2021/11/25 01:07:59;;;;;;;3.15;2.45;;;21.70;35.60;;;;;;5035051;28;20880;-73
2021/11/25 01:10:25;;;;;;;2.85;2.35;;;21.70;35.60;;;;;;5033689;28;20434;-73
2021/11/25 01:12:53;;;;;;;3.35;2.88;;;21.70;36.20;;;;;;5035076;28;20415;-73
2021/11/25 01:15:28;;;;;;;3.10;2.80;;;21.70;35.60;;;;;;5034509;28;20457;-73
2021/11/25 01:17:54;;;;;;;3.95;2.67;;;21.70;35.60;;;;;;5034836;28;20391;-73
2021/11/25 01:20:20;;;;;;;3.45;2.60;;;21.70;35.60;;;;;;5033421;28;20395;-72
2021/11/25 01:22:46;;;;;;;3.10;2.60;;;21.70;35.60;;;;;;5034644;28;20383;-73
2021/11/25 01:25:12;;;;;;;3.05;2.70;;;21.60;35.50;;;;;;5033261;28;20426;-70
2021/11/25 01:27:39;;;;;;;3.13;2.53;;;21.70;35.60;;;;;;5034829;28;20383;-70
2021/11/25 01:30:07;;;;;;;3.90;2.70;;;21.60;35.50;;;;;;5034062;28;20881;-70
2021/11/25 01:32:33;;;;;;;3.50;2.70;;;21.60;35.50;;;;;;5034614;28;20449;-71
2021/11/25 01:34:59;;;;;;;4.00;2.70;;;21.60;35.50;;;;;;5033325;28;20958;-69
2021/11/25 01:37:27;;;;;;;3.95;2.53;;;21.60;35.50;;;;;;5034406;28;20880;-70
2021/11/25 01:39:53;;;;;;;3.42;2.53;;;21.60;35.50;;;;;;5033329;28;20427;-70
2021/11/25 01:42:19;;;;;;;3.43;2.73;;;21.70;35.50;;;;;;5032979;28;20484;-73
2021/11/25 01:44:45;;;;;;;2.92;2.30;;;21.60;35.50;;;;;;5034352;28;20423;-69
2021/11/25 01:47:10;;;;;;;3.53;2.90;;;21.60;35.50;;;;;;5034430;28;20398;-70
2021/11/25 01:49:36;;;;;;;3.60;2.70;;;21.70;35.60;;;;;;5034324;28;20390;-70
2021/11/25 01:52:02;;;;;;;3.47;2.67;;;21.70;35.60;;;;;;5033097;28;20387;-71
2021/11/25 01:54:28;;;;;;;3.10;2.50;;;21.60;35.50;;;;;;5034249;28;20460;-69
2021/11/25 01:56:55;;;;;;;3.42;2.70;;;21.70;35.60;;;;;;5034153;28;20391;-69
2021/11/25 01:59:21;;;;;;;3.38;2.83;;;21.60;35.50;;;;;;5032831;28;20423;-70
2021/11/25 02:01:47;;;;;;;2.90;2.60;;;21.60;35.50;;;;;;5034067;28;20418;-73
2021/11/25 02:04:13;;;;;;;3.47;2.67;;;21.60;35.50;;;;;;5032648;28;20453;-71
2021/11/25 02:06:39;;;;;;;3.25;2.65;;;21.60;35.50;;;;;;5033968;28;20437;-69
2021/11/25 02:09:06;;;;;;;2.83;2.40;;;21.60;35.50;;;;;;5032828;28;20391;-72
2021/11/25 02:11:32;;;;;;;2.70;2.40;;;21.60;35.50;;;;;;5032684;28;20878;-70
2021/11/25 02:13:58;;;;;;;3.00;2.70;;;21.60;35.50;;;;;;5032492;28;20388;-69
2021/11/25 02:16:23;;;;;;;3.03;2.40;;;21.50;35.40;;;;;;5033819;28;20449;-70
2021/11/25 02:18:49;;;;;;;2.72;2.42;;;21.60;35.50;;;;;;5032213;28;20418;-70
2021/11/25 02:21:15;;;;;;;2.80;2.50;;;21.60;35.50;;;;;;5033699;28;20874;-69
2021/11/25 02:23:41;;;;;;;3.05;2.55;;;21.50;35.40;;;;;;5033779;28;20375;-71
2021/11/25 02:26:07;;;;;;;3.83;2.63;;;21.60;35.50;;;;;;5033395;28;20426;-70
2021/11/25 02:28:36;;;;;;;2.90;2.45;;;21.60;35.50;;;;;;5033400;28;20403;-71
2021/11/25 02:31:04;;;;;;;3.42;2.63;;;21.60;35.60;;;;;;5033551;28;20391;-71
2021/11/25 02:33:30;;;;;;;3.33;2.78;;;21.60;35.60;;;;;;5032305;28;20394;-70
2021/11/25 02:35:57;;;;;;;2.97;2.65;;;21.50;35.60;;;;;;5033341;28;20387;-72
2021/11/25 02:38:23;;;;;;;3.00;2.50;;;21.60;35.60;;;;;;5033289;28;20391;-71
2021/11/25 02:40:53;;;;;;;2.78;2.40;;;21.50;35.50;;;;;;5033491;28;20391;-69
2021/11/25 02:43:21;;;;;;;2.80;2.50;;;21.50;35.50;;;;;;5031957;28;20387;-70
2021/11/25 02:45:58;;;;;;;3.20;2.38;;;21.50;35.50;;;;;;5032055;28;20908;-72
2021/11/25 02:48:28;;;;;;;3.00;2.63;;;21.50;35.40;;;;;;5033013;28;20624;-70
2021/11/25 02:50:55;;;;;;;2.40;2.10;;;21.50;35.40;;;;;;5032069;28;20391;-70
2021/11/25 02:53:24;;;;;;;3.17;2.70;;;21.50;35.40;;;;;;5033188;28;20427;-70
2021/11/25 02:55:53;;;;;;;3.30;2.47;;;21.50;35.40;;;;;;5033103;28;20387;-71
2021/11/25 02:58:19;;;;;;;2.95;2.58;;;21.50;35.40;;;;;;5031543;28;20486;-71
2021/11/25 03:00:47;;;;;;;2.90;2.28;;;21.50;35.40;;;;;;5033113;28;20795;-74
2021/11/25 03:03:16;;;;;;;3.75;2.70;;;21.50;35.40;;;;;;5031498;28;20406;-70
2021/11/25 03:05:45;;;;;;;3.10;2.63;;;21.50;35.40;;;;;;5031556;28;20429;-73
2021/11/25 03:08:12;;;;;;;2.97;2.50;;;21.50;35.40;;;;;;5032894;28;20497;-71
2021/11/25 03:10:44;;;;;;;3.33;2.55;;;21.50;35.40;;;;;;5031589;28;20441;-73
2021/11/25 03:13:12;;;;;;;3.17;2.25;;;21.50;35.50;;;;;;5031457;28;20808;-70
2021/11/25 03:15:38;;;;;;;2.95;2.40;;;21.50;35.60;;;;;;5031477;28;20903;-71
2021/11/25 03:18:05;;;;;;;2.95;2.60;;;21.50;35.60;;;;;;5032773;28;20422;-70
2021/11/25 03:20:31;;;;;;;2.97;2.63;;;21.50;35.60;;;;;;5030721;28;20402;-71
2021/11/25 03:22:57;;;;;;;3.08;2.45;;;21.50;35.50;;;;;;5031327;28;20397;-70
2021/11/25 03:25:23;;;;;;;3.10;2.33;;;21.50;35.60;;;;;;5032286;28;20483;-71
2021/11/25 03:27:51;;;;;;;2.97;2.23;;;21.50;35.50;;;;;;5032580;28;20757;-72
2021/11/25 03:30:17;;;;;;;2.92;2.45;;;21.50;35.50;;;;;;5032299;28;20402;-70
2021/11/25 03:32:42;;;;;;;3.45;2.58;;;21.40;35.50;;;;;;5031246;28;20436;-70
2021/11/25 03:35:09;;;;;;;3.43;2.20;;;21.50;35.50;;;;;;5032425;28;20486;-69
2021/11/25 03:37:35;;;;;;;2.70;2.35;;;21.40;35.50;;;;;;5032406;28;20395;-69
2021/11/25 03:40:03;;;;;;;3.05;2.40;;;21.50;35.80;;;;;;5031028;28;20445;-73
2021/11/25 03:42:29;;;;;;;4.18;2.33;;;21.50;35.50;;;;;;5032229;28;20399;-70
2021/11/25 03:44:54;;;;;;;3.33;2.50;;;21.50;35.50;;;;;;5032153;28;20402;-70
2021/11/25 03:47:20;;;;;;;2.53;2.27;;;21.40;35.40;;;;;;5032189;28;20410;-70
2021/11/25 03:49:46;;;;;;;3.20;2.33;;;21.40;35.40;;;;;;5032085;28;20391;-72
2021/11/25 03:52:12;;;;;;;2.80;2.33;;;21.40;35.40;;;;;;5032191;28;20398;-69
2021/11/25 03:54:38;;;;;;;2.92;2.33;;;21.40;35.50;;;;;;5031980;28;20399;-69
2021/11/25 03:57:04;;;;;;;2.97;2.40;;;21.40;35.40;;;;;;5032014;28;20761;-71
2021/11/25 03:59:29;;;;;;;2.42;2.20;;;21.40;35.40;;;;;;5031880;28;20399;-69
2021/11/25 04:01:55;;;;;;;4.23;2.33;;;21.40;35.40;;;;;;5032008;28;20402;-68
2021/11/25 04:04:21;;;;;;;2.58;2.25;;;21.40;35.50;;;;;;5031795;28;20486;-70
2021/11/25 04:06:47;;;;;;;3.88;2.50;;;21.40;35.80;;;;;;5031889;28;20405;-70
2021/11/25 04:09:12;;;;;;;2.42;2.22;;;21.50;35.20;;;;;;5031891;28;20462;-70
2021/11/25 04:11:38;;;;;;;4.30;2.60;;;21.50;35.80;;;;;;5031590;28;20403;-69
2021/11/25 04:14:04;;;;;;;3.78;2.47;;;21.60;36.10;;;;;;5031289;28;20403;-71
2021/11/25 04:16:30;;;;;;;10.50;2.53;;;21.60;35.50;;;;;;5031738;28;20773;-72
2021/11/25 04:18:57;;;;;;;5.30;2.67;;;21.70;36.00;;;;;;5031817;28;20387;-71
2021/11/25 04:21:24;;;;;;;5.72;2.60;;;21.70;36.70;;;;;;5031874;28;20457;-71
2021/11/25 04:23:50;;;;;;;4.97;2.58;;;21.80;37.00;;;;;;5031732;28;20409;-70
2021/11/25 04:26:15;;;;;;;6.47;2.58;;;21.80;37.20;;;;;;5031329;28;20427;-72
2021/11/25 04:28:41;;;;;;;4.70;2.53;;;21.80;37.10;;;;;;5031815;28;20942;-71
2021/11/25 04:36:35;;;;;;;6.20;2.42;;;21.80;37.40;;;;;;5035662;28;20414;-72
2021/11/25 04:39:05;;;;;;;4.32;2.65;;;21.80;37.40;;;;;;5034892;28;20427;-72
2021/11/25 04:41:30;;;;;;;5.55;2.40;;;21.80;37.00;;;;;;5035717;28;20911;-71
2021/11/25 04:43:56;;;;;;;4.00;2.30;;;21.80;37.70;;;;;;5034550;28;20403;-68
2021/11/25 04:46:22;;;;;;;9.27;2.65;;;21.90;38.10;;;;;;5035598;28;20418;-69
2021/11/25 04:48:48;;;;;;;5.38;2.40;;;21.90;37.90;;;;;;5035546;28;20482;-69
2021/11/25 04:51:14;;;;;;;6.43;2.40;;;22.00;38.00;;;;;;5035522;28;20399;-73
2021/11/25 04:53:39;;;;;;;4.37;2.30;;;22.00;38.00;;;;;;5035193;28;20394;-69
2021/11/25 04:56:05;;;;;;;6.20;2.20;;;21.90;37.10;;;;;;5035365;28;20383;-70
2021/11/25 04:58:31;;;;;;;2.87;2.30;;;22.00;37.80;;;;;;5033871;28;20982;-69
2021/11/25 05:00:57;;;;;;;4.43;2.50;;;22.00;38.00;;;;;;5035328;28;20861;-69
2021/11/25 05:03:22;;;;;;;6.80;2.03;;;22.00;37.40;;;;;;5035205;28;20737;-71
2021/11/25 05:05:48;;;;;;;10.65;2.28;;;22.00;37.90;;;;;;5034935;28;20418;-69
2021/11/25 05:08:14;;;;;;;7.60;2.17;;;22.10;37.80;;;;;;5034879;28;20470;-71
2021/11/25 05:10:40;;;;;;;6.28;2.30;;;22.00;38.00;;;;;;5032079;28;20493;-69
2021/11/25 05:13:07;;;;;;;9.63;2.53;;;22.00;37.80;;;;;;5033751;28;20384;-69
2021/11/25 05:15:33;;;;;;;6.88;2.10;;;22.10;38.20;;;;;;5034667;28;20425;-72
2021/11/25 05:17:58;;;;;;;6.43;2.27;;;22.20;38.90;;;;;;5034813;28;20391;-70
2021/11/25 05:20:25;;;;;;;5.75;2.22;;;22.20;38.70;;;;;;5035156;28;20387;-67
2021/11/25 05:22:51;;;;;;;6.93;2.67;;;22.30;38.70;;;;;;5034791;28;20433;-69
2021/11/25 05:25:16;;;;;;;5.32;2.35;;;22.30;38.30;;;;;;5030362;28;20440;-69
2021/11/25 05:27:43;;;;;;;6.85;2.53;;;22.30;37.60;;;;;;5033869;28;20390;-72
2021/11/25 05:30:11;;;;;;;6.35;2.35;;;22.20;37.30;;;;;;5033167;28;20403;-70
2021/11/25 05:32:37;;;;;;;5.20;2.40;;;22.20;37.10;;;;;;5033718;28;20891;-70
2021/11/25 05:35:04;;;;;;;4.45;2.20;;;22.20;37.00;;;;;;5033850;28;20394;-69
2021/11/25 05:37:30;;;;;;;5.18;2.33;;;22.20;36.90;;;;;;5033511;28;20397;-69
2021/11/25 05:39:55;;;;;;;5.63;2.30;;;22.20;36.60;;;;;;5034442;28;20403;-72
2021/11/25 05:42:21;;;;;;;5.63;2.37;;;22.20;36.90;;;;;;5032326;28;20489;-69
2021/11/25 05:44:47;;;;;;;6.45;2.10;;;22.10;36.70;;;;;;5033050;28;20532;-69
2021/11/25 05:47:12;;;;;;;6.10;2.30;;;22.20;36.40;;;;;;5026727;28;20391;-70
2021/11/25 05:49:38;;;;;;;9.48;2.40;;;22.10;36.30;;;;;;5033331;28;20897;-70
2021/11/25 05:52:04;;;;;;;5.72;2.05;;;22.10;37.20;;;;;;5033524;28;20387;-69
2021/11/25 05:54:31;;;;;;;6.87;1.90;;;22.20;37.30;;;;;;5033665;28;20433;-70
2021/11/25 05:56:57;;;;;;;10.30;2.17;;;22.20;37.00;;;;;;5033789;28;20387;-69
2021/11/25 05:59:22;;;;;;;7.25;2.15;;;22.20;37.20;;;;;;5033856;28;20395;-69
2021/11/25 06:01:48;;;;;;;8.37;2.47;;;22.20;37.90;;;;;;5034514;28;20390;-69
2021/11/25 06:04:14;;;;;;;7.10;2.15;;;22.20;37.70;;;;;;5028311;28;20755;-68
2021/11/25 06:06:40;;;;;;;10.13;2.23;;;22.20;37.30;;;;;;5034432;28;20414;-68
2021/11/25 06:09:05;;;;;;;7.47;2.28;;;22.20;37.00;;;;;;5032426;28;20739;-70
2021/11/25 06:11:31;;;;;;;5.30;2.27;;;22.10;36.80;;;;;;5031844;28;20927;-69
2021/11/25 06:13:57;;;;;;;6.55;2.30;;;22.10;36.70;;;;;;5034608;28;20391;-69
2021/11/25 06:16:22;;;;;;;5.30;2.03;;;22.10;36.50;;;;;;5033047;28;20494;-69
2021/11/25 06:18:48;;;;;;;5.35;2.17;;;22.00;36.50;;;;;;5033697;28;20421;-70
2021/11/25 06:21:14;;;;;;;4.73;1.80;;;22.00;36.50;;;;;;5033746;28;20795;-72
2021/11/25 06:23:41;;;;;;;5.32;2.33;;;22.00;36.40;;;;;;5033665;28;20423;-70
2021/11/25 06:26:07;;;;;;;5.35;2.13;;;21.90;36.00;;;;;;5033292;28;20427;-70
2021/11/25 06:28:33;;;;;;;6.60;2.10;;;21.90;35.90;;;;;;5033324;28;20513;-70
2021/11/25 06:30:59;;;;;;;5.10;2.00;;;21.90;35.80;;;;;;5035043;28;20840;-75
2021/11/25 06:33:25;;;;;;;3.50;2.10;;;21.90;35.70;;;;;;5033635;28;20387;-70
2021/11/25 06:35:51;;;;;;;4.57;1.85;;;21.90;35.70;;;;;;5033452;28;20395;-69
2021/11/25 06:38:18;;;;;;;2.97;2.00;;;21.80;35.60;;;;;;5033267;28;20387;-69
2021/11/25 06:40:46;;;;;;;3.17;1.70;;;21.90;35.60;;;;;;5032347;28;20399;-69
2021/11/25 06:43:12;;;;;;;4.72;1.65;;;21.80;35.60;;;;;;5032610;28;20399;-70
2021/11/25 06:45:38;;;;;;;3.75;1.90;;;21.80;35.50;;;;;;5032579;28;20415;-74
2021/11/25 06:48:04;;;;;;;3.22;1.98;;;21.80;35.50;;;;;;5029672;28;20873;-72
2021/11/25 06:50:30;;;;;;;4.45;2.13;;;21.80;36.10;;;;;;5033435;28;20892;-71
2021/11/25 06:52:56;;;;;;;4.33;2.03;;;21.80;35.50;;;;;;5033607;28;20387;-69
2021/11/25 06:55:23;;;;;;;3.33;1.80;;;21.80;35.60;;;;;;5032474;28;20395;-69
2021/11/25 06:57:51;;;;;;;4.53;2.30;;;21.80;35.50;;;;;;5032829;28;20908;-69
2021/11/25 07:00:25;;;;;;;4.90;2.30;;;21.70;35.40;;;;;;5032558;28;20395;-70
2021/11/25 07:02:54;;;;;;;4.20;2.25;;;21.70;35.50;;;;;;5032553;28;20418;-67
2021/11/25 07:05:22;;;;;;;5.78;2.17;;;21.60;35.40;;;;;;5032278;28;20426;-69
2021/11/25 07:07:48;;;;;;;5.00;2.20;;;21.70;35.50;;;;;;5031774;28;20389;-70
2021/11/25 07:10:14;;;;;;;4.30;2.03;;;21.70;35.60;;;;;;5032687;28;20467;-69
2021/11/25 07:12:40;;;;;;;4.07;2.10;;;21.70;35.50;;;;;;5031465;28;20482;-67
2021/11/25 07:15:09;;;;;;;5.07;2.20;;;21.80;35.70;;;;;;5032417;28;20765;-70
2021/11/25 07:17:35;;;;;;;4.88;2.10;;;21.70;35.40;;;;;;5032435;28;20968;-70
2021/11/25 07:20:02;;;;;;;4.53;2.00;;;21.80;35.30;;;;;;5032400;28;20390;-69
2021/11/25 07:22:29;;;;;;;4.70;2.15;;;21.80;35.40;;;;;;5032106;28;20487;-70
2021/11/25 07:24:55;;;;;;;5.97;2.20;;;21.70;35.60;;;;;;5032078;28;20502;-72
2021/11/25 07:27:22;;;;;;;5.07;2.05;;;21.70;35.20;;;;;;5031024;28;20489;-69
2021/11/25 07:29:47;;;;;;;4.20;2.13;;;21.70;35.40;;;;;;5032353;28;20715;-70
2021/11/25 07:32:13;;;;;;;5.70;2.40;;;21.70;35.50;;;;;;5029882;28;20403;-69
2021/11/25 07:34:39;;;;;;;5.57;2.13;;;21.70;35.20;;;;;;5030709;28;20386;-70
2021/11/25 07:37:04;;;;;;;5.32;2.00;;;21.70;35.30;;;;;;5031028;28;20391;-71
2021/11/25 07:39:30;;;;;;;4.67;2.10;;;21.70;35.90;;;;;;5031039;28;20384;-68
2021/11/25 07:41:56;;;;;;;3.70;1.65;;;21.70;35.40;;;;;;5028259;28;20379;-70
2021/11/25 07:44:21;;;;;;;3.47;1.73;;;21.70;35.30;;;;;;5030856;28;20391;-70
2021/11/25 07:46:47;;;;;;;3.03;2.10;;;21.70;35.50;;;;;;5029569;28;20901;-69
2021/11/25 07:49:13;;;;;;;4.45;2.28;;;21.70;35.20;;;;;;5029419;28;20821;-67
2021/11/25 07:51:39;;;;;;;7.03;2.10;;;21.70;35.30;;;;;;5031997;28;20406;-69
2021/11/25 07:54:08;;;;;;;5.38;2.20;;;21.70;35.10;;;;;;5027347;28;20397;-70
2021/11/25 07:56:35;;;;;;;5.32;2.30;;;21.70;34.80;;;;;;5042208;28;20397;-70
2021/11/25 07:59:01;;;;;;;5.32;2.30;;;21.70;35.00;;;;;;5041057;28;20433;-70
2021/11/25 08:01:27;;;;;;;6.65;2.47;;;21.70;35.20;;;;;;5038070;28;20391;-67
2021/11/25 08:03:53;;;;;;;3.30;2.00;;;21.70;35.10;;;;;;5041240;28;20484;-68
2021/11/25 08:06:18;;;;;;;4.63;2.13;;;21.70;35.20;;;;;;5038769;28;20504;-70
2021/11/25 08:08:44;;;;;;;3.70;2.17;;;21.70;35.00;;;;;;5038874;28;20378;-70
2021/11/25 08:11:10;;;;;;;3.53;2.20;;;21.80;35.30;;;;;;5041600;28;20405;-71
2021/11/25 08:13:35;;;;;;;5.10;2.23;;;21.80;35.10;;;;;;5038777;28;20387;-71
2021/11/25 08:16:01;;;;;;;5.80;2.30;;;21.80;34.90;;;;;;5038610;28;20390;-68
2021/11/25 08:18:27;;;;;;;6.80;2.50;;;21.80;35.00;;;;;;5041622;28;20382;-69
2021/11/25 08:20:53;;;;;;;6.73;2.10;;;21.70;34.90;;;;;;5049982;28;20493;-68
2021/11/25 08:23:19;;;;;;;4.80;2.30;;;21.80;35.00;;;;;;5050300;28;20401;-71
2021/11/25 08:25:44;;;;;;;5.80;2.70;;;21.70;35.50;;;;;;5051109;28;21021;-70
2021/11/25 08:28:10;;;;;;;6.20;2.70;;;21.70;35.00;;;;;;5051308;28;20417;-70
2021/11/25 08:30:35;;;;;;;4.40;2.50;;;21.70;35.20;;;;;;5051478;28;20484;-71
2021/11/25 08:33:01;;;;;;;6.10;2.30;;;21.70;34.80;;;;;;5050617;28;20386;-70
2021/11/25 08:35:28;;;;;;;7.63;2.47;;;21.60;34.70;;;;;;5050721;28;20408;-71
2021/11/25 08:37:55;;;;;;;4.57;2.47;;;21.60;35.00;;;;;;5050158;28;20386;-72
2021/11/25 08:40:21;;;;;;;5.97;2.47;;;21.60;35.10;;;;;;5050685;28;20396;-72
2021/11/25 08:42:48;;;;;;;4.70;2.47;;;21.60;34.90;;;;;;5049840;28;20400;-72
2021/11/25 08:45:15;;;;;;;10.07;2.75;;;21.70;35.40;;;;;;5049845;28;20489;-73
2021/11/25 08:47:41;;;;;;;6.57;2.53;;;21.70;34.60;;;;;;5051160;28;20426;-72
2021/11/25 08:50:09;;;;;;;7.07;2.70;;;21.60;34.90;;;;;;5051293;28;20940;-70
2021/11/25 08:52:35;;;;;;;6.18;2.70;;;21.60;34.80;;;;;;5050961;28;20385;-70
2021/11/25 08:55:01;;;;;;;5.75;2.50;;;21.60;35.20;;;;;;5051278;28;20396;-69
2021/11/25 08:57:27;;;;;;;6.18;2.60;;;21.50;35.00;;;;;;5051379;28;20394;-70
2021/11/25 08:59:53;;;;;;;4.88;2.60;;;21.60;35.10;;;;;;5051114;28;20488;-73
2021/11/25 09:02:19;;;;;;;4.20;2.27;;;21.60;34.80;;;;;;5048376;28;20381;-71
2021/11/25 09:04:45;;;;;;;5.30;2.33;;;21.50;35.00;;;;;;5030980;28;20449;-71
2021/11/25 09:07:11;;;;;;;6.60;2.70;;;21.50;34.70;;;;;;5031149;28;20478;-72
2021/11/25 09:09:37;;;;;;;5.40;2.73;;;21.50;34.60;;;;;;5029750;28;20489;-71
2021/11/25 09:12:04;;;;;;;4.30;2.53;;;21.50;34.60;;;;;;5031338;28;20471;-71
2021/11/25 09:14:29;;;;;;;3.47;2.17;;;21.50;34.60;;;;;;5030982;28;20396;-70
2021/11/25 09:16:55;;;;;;;4.40;2.60;;;21.50;34.60;;;;;;5030988;28;20406;-71
2021/11/25 09:19:21;;;;;;;3.42;2.33;;;21.50;34.60;;;;;;5031698;28;20908;-71
2021/11/25 09:21:46;;;;;;;3.20;2.30;;;21.50;34.40;;;;;;5033771;28;20401;-71
2021/11/25 09:24:12;;;;;;;3.83;2.30;;;21.50;34.40;;;;;;5034255;28;20387;-70
2021/11/25 09:26:38;;;;;;;3.03;2.40;;;21.50;34.40;;;;;;5033382;28;20419;-71
2021/11/25 09:29:07;;;;;;;3.38;2.33;;;21.50;34.50;;;;;;5034844;28;20394;-71
2021/11/25 09:31:34;;;;;;;3.75;2.67;;;21.50;34.70;;;;;;5033326;28;20399;-70
2021/11/25 09:34:02;;;;;;;3.67;2.43;;;21.50;34.30;;;;;;5034213;28;20415;-70
2021/11/25 09:36:29;;;;;;;3.53;2.40;;;21.50;34.40;;;;;;5033696;28;20438;-71
2021/11/25 09:38:56;;;;;;;4.20;2.25;;;21.50;34.60;;;;;;5033450;28;20415;-74
2021/11/25 09:41:22;;;;;;;3.75;2.33;;;21.40;34.40;;;;;;5034612;28;20426;-70
2021/11/25 09:43:48;;;;;;;5.25;2.60;;;21.50;34.30;;;;;;5033280;28;20453;-72
2021/11/25 09:46:15;;;;;;;4.00;2.47;;;21.40;34.20;;;;;;5032874;28;20927;-73
2021/11/25 09:48:41;;;;;;;6.33;2.80;;;21.50;34.40;;;;;;5034381;28;20792;-72
2021/11/25 09:51:10;;;;;;;6.15;2.75;;;21.50;34.80;;;;;;5034339;28;20411;-73
2021/11/25 09:53:37;;;;;;;5.60;2.80;;;21.50;34.60;;;;;;5034320;28;20379;-72
2021/11/25 09:56:05;;;;;;;8.45;2.95;;;21.50;35.20;;;;;;5033699;28;20437;-70
2021/11/25 09:58:34;;;;;;;5.90;3.47;;;21.60;35.10;;;;;;5032569;28;20906;-71
2021/11/25 10:01:03;;;;;;;6.47;3.30;;;21.60;36.50;;;;;;5032726;28;20395;-70
2021/11/25 10:03:30;;;;;;;7.68;2.95;;;21.60;36.60;;;;;;5034241;28;20887;-73
2021/11/25 10:05:57;;;;;;;5.80;3.10;;;21.60;36.10;;;;;;5033988;28;20468;-73
2021/11/25 10:08:26;;;;;;;5.55;2.70;;;21.70;36.00;;;;;;5032761;28;20437;-71
2021/11/25 10:11:08;;;;;;;5.40;2.78;;;21.70;35.80;;;;;;5032765;28;20399;-71
2021/11/25 10:13:38;;;;;;;6.30;2.92;;;21.70;35.70;;;;;;5033972;28;20387;-69
2021/11/25 10:16:06;;;;;;;5.10;2.90;;;21.70;35.60;;;;;;5033923;28;20387;-72
2021/11/25 10:18:37;;;;;;;5.05;2.75;;;21.70;35.40;;;;;;5032387;28;20394;-73
2021/11/25 10:21:16;;;;;;;5.22;2.65;;;21.70;35.50;;;;;;5033589;28;20394;-71
2021/11/25 10:23:45;;;;;;;4.72;2.60;;;21.70;35.50;;;;;;5033746;28;20394;-69
2021/11/25 10:26:19;;;;;;;6.63;2.80;;;21.70;35.40;;;;;;4990166;28;20405;-69
2021/11/25 10:28:47;;;;;;;5.00;2.63;;;21.70;35.50;;;;;;5012351;28;20463;-70
2021/11/25 10:31:18;;;;;;;6.65;2.80;;;21.70;35.50;;;;;;5011392;28;20419;-69
2021/11/25 10:33:56;;;;;;;6.45;3.10;;;21.70;36.30;;;;;;5012939;28;20441;-72
2021/11/25 10:37:17;;;;;;;7.15;2.92;;;21.80;36.20;;;;;;5013846;28;20446;-70
2021/11/25 10:39:29;;;;;;;5.68;2.70;;;21.80;36.00;;;;;;5013414;28;20405;-68
2021/11/25 10:42:00;;;;;;;6.07;2.85;;;21.80;36.00;;;;;;5012608;28;20617;-69
2021/11/25 10:44:35;;;;;;;5.45;2.75;;;21.90;35.90;;;;;;5012198;28;20396;-70
2021/11/25 10:47:13;;;;;;;5.65;2.67;;;21.90;35.80;;;;;;5012070;28;20405;-68
2021/11/25 10:50:00;;;;;;;7.05;3.10;;;21.90;35.60;;;;;;5012821;28;20385;-70
2021/11/25 10:52:44;;;;;;;4.50;2.40;;;21.90;35.60;;;;;;5012139;28;20462;-69
2021/11/25 10:55:15;;;;;;;5.30;2.73;;;22.00;35.60;;;;;;5013325;28;20972;-70
2021/11/25 10:57:47;;;;;;;5.38;2.85;;;22.00;35.20;;;;;;5012980;28;20395;-71
2021/11/25 11:00:36;;;;;;;5.68;3.20;;;22.00;35.10;;;;;;5031412;28;20466;-72
2021/11/25 11:03:08;;;;;;;4.88;3.20;;;21.90;35.10;;;;;;5031578;28;20749;-70
2021/11/25 11:05:58;;;;;;;4.43;2.70;;;22.00;35.00;;;;;;5047811;28;20411;-70
2021/11/25 11:08:44;;;;;;;4.40;2.87;;;22.10;34.80;;;;;;5031422;28;20940;-73
2021/11/25 11:11:11;;;;;;;4.00;3.00;;;22.10;34.70;;;;;;5030844;28;20395;-71
2021/11/25 11:14:01;;;;;;;4.60;3.00;;;22.10;34.50;;;;;;5047948;28;20445;-70
2021/11/25 11:16:41;;;;;;;4.95;3.03;;;22.10;34.40;;;;;;5047914;28;20399;-70
2021/11/25 11:19:11;;;;;;;4.63;2.78;;;22.10;34.30;;;;;;5047804;28;20394;-70
2021/11/25 11:21:40;;;;;;;4.30;2.78;;;22.10;34.20;;;;;;5032557;28;20395;-71
2021/11/25 11:24:15;;;;;;;5.53;3.15;;;22.10;34.10;;;;;;5032337;28;20402;-72
2021/11/25 11:26:52;;;;;;;5.43;3.13;;;22.10;34.20;;;;;;5031678;28;21148;-71
2021/11/25 11:29:21;;;;;;;5.28;3.20;;;22.00;34.50;;;;;;5046651;28;20402;-70
2021/11/25 11:31:48;;;;;;;8.45;3.78;;;22.00;34.70;;;;;;5021872;28;20416;-71
2021/11/25 11:34:15;;;;;;;6.82;3.80;;;22.00;35.20;;;;;;5020839;28;20399;-71
2021/11/25 11:36:44;;;;;;;7.82;3.70;;;22.10;35.30;;;;;;5030596;28;20877;-72
2021/11/25 11:39:12;;;;;;;8.05;4.20;;;22.10;35.30;;;;;;5030466;28;20470;-71
2021/11/25 11:41:40;;;;;;;7.78;3.70;;;22.10;35.10;;;;;;5030269;28;20403;-69
2021/11/25 11:44:06;;;;;;;6.60;3.55;;;22.10;35.20;;;;;;5031861;28;20445;-70
2021/11/25 11:46:35;;;;;;;5.72;3.70;;;22.10;34.90;;;;;;5030556;28;20854;-71
2021/11/25 11:49:03;;;;;;;6.27;3.63;;;22.20;34.90;;;;;;5032058;28;20543;-70
2021/11/25 11:51:29;;;;;;;5.03;3.10;;;22.20;34.80;;;;;;5031826;28;20391;-70
2021/11/25 11:53:57;;;;;;;5.80;3.45;;;22.10;34.70;;;;;;5031793;28;20430;-69
2021/11/25 11:56:49;;;;;;;7.17;3.70;;;22.10;35.00;;;;;;5031812;28;20444;-69
2021/11/25 11:59:15;;;;;;;4.47;2.83;;;22.10;34.90;;;;;;5031270;28;20399;-71
2021/11/25 12:01:42;;;;;;;5.20;3.13;;;22.10;34.90;;;;;;5032000;28;20395;-70
2021/11/25 12:04:08;;;;;;;5.63;3.05;;;22.00;34.40;;;;;;5031754;28;20422;-69
2021/11/25 12:06:40;;;;;;;6.53;3.30;;;22.00;34.50;;;;;;5030478;28;20458;-71
2021/11/25 12:09:30;;;;;;;6.65;2.95;;;22.10;34.80;;;;;;5031874;28;20391;-70
2021/11/25 12:12:08;;;;;;;7.15;3.10;;;22.10;35.10;;;;;;5027031;28;20885;-71
2021/11/25 12:14:34;;;;;;;5.60;2.95;;;22.10;35.00;;;;;;5026113;28;20869;-70
2021/11/25 12:17:07;;;;;;;5.68;3.03;;;22.10;35.10;;;;;;5024265;28;20379;-70
2021/11/25 12:19:43;;;;;;;5.68;3.00;;;22.10;35.20;;;;;;5020862;28;20385;-70
2021/11/25 12:22:12;;;;;;;6.63;3.15;;;22.10;35.30;;;;;;5021496;28;20418;-71
2021/11/25 12:24:49;;;;;;;7.18;2.97;;;22.10;35.20;;;;;;5021427;28;20406;-70
2021/11/25 12:27:34;;;;;;;3.83;2.85;;;22.10;35.20;;;;;;5020696;28;20720;-71
2021/11/25 12:30:04;;;;;;;4.28;2.80;;;22.10;35.20;;;;;;5023877;28;20907;-70
2021/11/25 12:32:40;;;;;;;5.93;2.90;;;22.10;35.10;;;;;;5017531;28;20806;-70
2021/11/25 12:35:15;;;;;;;5.15;2.83;;;22.10;35.00;;;;;;5021196;28;20451;-71
2021/11/25 12:37:45;;;;;;;4.88;2.75;;;22.10;35.10;;;;;;5017941;28;20773;-70
2021/11/25 12:40:16;;;;;;;5.30;2.70;;;22.10;35.00;;;;;;5017561;28;20454;-68
2021/11/25 12:42:44;;;;;;;3.97;2.80;;;22.10;34.90;;;;;;5010041;28;20920;-69
2021/11/25 12:45:22;;;;;;;3.93;2.80;;;22.10;34.80;;;;;;5010372;28;20968;-71
2021/11/25 12:48:09;;;;;;;5.30;2.77;;;22.10;34.80;;;;;;5011517;28;20400;-70
2021/11/25 12:50:41;;;;;;;7.32;3.65;;;22.10;34.80;;;;;;5011163;28;20391;-71
2021/11/25 12:53:15;;;;;;;4.80;2.90;;;22.20;36.20;;;;;;5012129;28;20438;-73
2021/11/25 12:55:44;;;;;;;5.15;3.20;;;22.20;36.00;;;;;;5015319;28;20385;-72